Time;durP1;ratioP1;P1;durP2;ratioP2;P2;SDS_P1;SDS_P2;PMS_P1;PMS_P2;Temp;Humidity;BMP_temperature;BMP_pressure;BME280_temperature;BME280_humidity;BME280_pressure;Samples;Min_cycle;Max_cycle;Signal;HPM_P1;HPM_P2
2022/03/19 00:02:01;;;;;;;28.90;16.92;;;;;;;-9.07;53.20;101423.59;4919040;29;20493;-78
2022/03/19 00:04:27;;;;;;;27.08;16.05;;;;;;;-9.13;52.65;101412.19;4949610;29;20452;-78
2022/03/19 00:06:53;;;;;;;27.17;16.02;;;;;;;-9.12;52.66;101430.34;4917788;29;20130;-80
2022/03/19 00:09:19;;;;;;;26.13;16.48;;;;;;;-9.13;52.77;101432.91;4918825;29;20115;-77
2022/03/19 00:11:44;;;;;;;25.52;16.52;;;;;;;-9.14;53.35;101426.84;4933678;29;20048;-78
2022/03/19 00:14:12;;;;;;;28.98;15.65;;;;;;;-9.13;53.18;101431.19;4919093;29;20089;-79
2022/03/19 00:16:39;;;;;;;29.38;17.25;;;;;;;-9.17;53.03;101437.09;4917606;29;20515;-78
2022/03/19 00:19:06;;;;;;;25.00;16.17;;;;;;;-9.24;53.30;101424.78;4933855;29;20088;-79
2022/03/19 00:21:34;;;;;;;24.50;15.40;;;;;;;-9.28;53.04;101422.91;4932959;29;20040;-79
2022/03/19 00:24:02;;;;;;;27.23;16.50;;;;;;;-9.26;52.82;101426.41;4933824;29;20051;-79
2022/03/19 00:26:30;;;;;;;29.17;15.95;;;;;;;-9.28;53.07;101432.41;4917677;29;20048;-79
2022/03/19 00:28:56;;;;;;;24.15;14.77;;;;;;;-9.26;53.18;101441.09;4933152;29;20288;-78
2022/03/19 00:31:22;;;;;;;26.67;14.93;;;;;;;-9.27;53.04;101427.25;4917582;29;20082;-79
2022/03/19 00:33:48;;;;;;;29.85;16.65;;;;;;;-9.25;53.19;101430.78;4933282;29;20484;-78
2022/03/19 00:36:13;;;;;;;26.63;15.35;;;;;;;-9.29;53.19;101410.78;4917352;29;20048;-79
2022/03/19 00:38:39;;;;;;;29.25;15.18;;;;;;;-9.24;53.36;101424.78;4933170;29;20044;-78
2022/03/19 00:41:06;;;;;;;20.60;10.48;;;;;;;-9.23;53.65;101426.53;4902107;29;20493;-79
2022/03/19 00:43:32;;;;;;;19.00;12.65;;;;;;;-9.15;54.49;101417.28;4917369;29;20545;-77
2022/03/19 00:45:58;;;;;;;20.98;11.07;;;;;;;-9.07;54.56;101418.41;4918518;29;20045;-78
2022/03/19 00:48:24;;;;;;;22.50;11.35;;;;;;;-8.97;55.00;101403.19;4917109;29;20058;-78
2022/03/19 00:50:50;;;;;;;22.10;12.43;;;;;;;-8.92;54.84;101427.53;4932882;29;20511;-78
2022/03/19 00:53:16;;;;;;;23.55;13.45;;;;;;;-8.95;54.66;101412.78;4901510;29;20059;-78
2022/03/19 00:55:43;;;;;;;27.40;13.18;;;;;;;-8.88;54.94;101421.59;4902051;29;20059;-78
2022/03/19 00:58:09;;;;;;;24.20;13.70;;;;;;;-8.85;55.22;101406.16;4918029;29;20044;-78
2022/03/19 01:00:34;;;;;;;18.98;10.68;;;;;;;-8.81;55.52;101411.47;4917061;29;20044;-78
2022/03/19 01:03:00;;;;;;;21.63;12.60;;;;;;;-8.67;55.68;101409.34;4932786;29;20444;-78
2022/03/19 01:05:27;;;;;;;19.52;11.32;;;;;;;-8.65;55.68;101402.50;4916975;29;20055;-78
2022/03/19 01:07:56;;;;;;;15.23;9.57;;;;;;;-8.51;56.12;101409.78;4932744;29;20079;-78
2022/03/19 01:10:24;;;;;;;21.05;11.07;;;;;;;-8.44;56.09;101412.63;4932930;29;20036;-79
2022/03/19 01:12:51;;;;;;;19.58;11.95;;;;;;;-8.47;55.19;101416.84;4932564;29;20076;-78
2022/03/19 01:15:18;;;;;;;17.50;10.52;;;;;;;-8.46;55.28;101413.41;4916714;29;20516;-78
2022/03/19 01:17:44;;;;;;;19.90;12.07;;;;;;;-8.42;55.49;101420.47;4932625;29;20408;-79
2022/03/19 01:20:11;;;;;;;17.85;10.52;;;;;;;-8.38;55.40;101415.41;4916668;29;20139;-78
2022/03/19 01:22:38;;;;;;;21.80;12.63;;;;;;;-8.41;55.02;101417.91;4937015;28;20435;-79
2022/03/19 01:25:08;;;;;;;23.10;12.13;;;;;;;-8.44;55.05;101407.44;4932080;29;20044;-79
2022/03/19 01:27:36;;;;;;;18.10;11.25;;;;;;;-8.40;54.73;101398.03;4932193;29;20051;-79
2022/03/19 01:30:04;;;;;;;24.00;12.70;;;;;;;-8.42;54.80;101415.28;4917933;29;20048;-79
2022/03/19 01:32:30;;;;;;;23.35;11.95;;;;;;;-8.46;54.77;101392.66;4947713;28;20081;-80
2022/03/19 01:34:56;;;;;;;16.45;10.23;;;;;;;-8.47;55.13;101385.72;4917568;29;20052;-78
2022/03/19 01:37:23;;;;;;;16.33;10.60;;;;;;;-8.49;55.10;101405.56;4917810;29;20052;-78
2022/03/19 01:39:49;;;;;;;20.42;10.90;;;;;;;-8.43;55.64;101392.75;4948126;29;20068;-80
2022/03/19 01:42:29;;;;;;;15.88;10.02;;;;;;;-8.43;55.78;101408.31;4917427;29;20472;-79
2022/03/19 01:44:57;;;;;;;18.20;10.57;;;;;;;-8.50;55.54;101396.00;4947957;29;20052;-78
2022/03/19 01:47:25;;;;;;;15.32;9.65;;;;;;;-8.50;55.20;101408.94;4917454;29;20054;-78
2022/03/19 01:49:51;;;;;;;18.25;11.23;;;;;;;-8.48;55.46;101415.09;4932176;29;20091;-79
2022/03/19 01:52:18;;;;;;;17.38;10.50;;;;;;;-8.48;55.20;101407.31;4917214;29;20131;-81
2022/03/19 01:54:47;;;;;;;17.17;11.65;;;;;;;-8.52;55.16;101408.03;4916092;29;20099;-80
2022/03/19 01:57:18;;;;;;;19.20;11.73;;;;;;;-8.57;55.49;101420.88;4947707;29;20122;-79
2022/03/19 01:59:44;;;;;;;24.23;11.00;;;;;;;-8.54;55.23;101414.88;4948062;29;20048;-79
2022/03/19 02:02:13;;;;;;;23.30;11.73;;;;;;;-8.57;54.89;101401.00;4946913;29;20523;-79
2022/03/19 02:04:41;;;;;;;23.58;12.18;;;;;;;-8.71;55.01;101389.34;4932094;29;20083;-78
2022/03/19 02:07:09;;;;;;;31.33;12.38;;;;;;;-8.78;55.32;101392.56;4931907;29;20055;-78
2022/03/19 02:09:36;;;;;;;27.38;15.95;;;;;;;-8.77;55.45;101386.53;4947566;29;20579;-79
2022/03/19 02:12:03;;;;;;;41.90;17.80;;;;;;;-8.77;55.61;101390.84;4931490;29;20079;-78
2022/03/19 02:14:32;;;;;;;32.60;16.73;;;;;;;-8.75;55.35;101384.88;4947759;29;20107;-78
2022/03/19 02:17:00;;;;;;;;;;;;;;;-8.76;55.16;101377.97;4947966;29;20051;-79
2022/03/19 02:19:26;;;;;;;32.28;14.85;;;;;;;-8.89;54.75;101381.84;4916877;29;19970;-79
2022/03/19 02:21:52;;;;;;;30.20;15.77;;;;;;;-8.99;54.53;101368.56;4931364;29;20043;-78
2022/03/19 02:27:05;;;;;;;32.80;17.30;;;;;;;-9.11;53.74;101371.66;4916930;29;20098;-79
2022/03/19 02:29:31;;;;;;;32.47;16.90;;;;;;;-9.17;53.70;101385.28;4917198;29;20124;-79
2022/03/19 02:31:59;;;;;;;32.83;17.60;;;;;;;-9.30;53.37;101365.00;4899881;29;20093;-79
2022/03/19 02:34:26;;;;;;;39.77;16.90;;;;;;;-9.29;53.24;101390.06;4915643;29;20051;-81
2022/03/19 02:36:52;;;;;;;30.63;16.98;;;;;;;-9.43;53.25;101381.84;4931251;29;20491;-79
2022/03/19 02:39:21;;;;;;;67.30;19.75;;;;;;;-9.57;53.22;101396.03;4899676;29;20408;-79
2022/03/19 02:41:49;;;;;;;38.37;16.47;;;;;;;-9.65;53.30;101416.47;4916516;29;20559;-79
2022/03/19 02:44:16;;;;;;;30.30;16.15;;;;;;;-9.69;53.39;101408.56;4915323;29;20788;-79
2022/03/19 02:46:54;;;;;;;37.10;16.77;;;;;;;-9.68;53.46;101421.53;4918700;29;20044;-81
2022/03/19 02:49:21;;;;;;;33.88;15.98;;;;;;;-9.65;53.44;101426.81;4936155;29;20171;-79
2022/03/19 02:51:48;;;;;;;27.30;15.68;;;;;;;-9.68;53.38;101421.53;4936529;29;20067;-79
2022/03/19 02:54:18;;;;;;;33.03;17.38;;;;;;;-9.67;53.46;101420.69;4940643;29;20068;-79
2022/03/19 02:56:45;;;;;;;45.72;16.67;;;;;;;-9.68;54.27;101421.53;4924088;29;20043;-79
2022/03/19 02:59:20;;;;;;;26.48;15.02;;;;;;;-9.67;54.08;101405.16;4929790;29;20107;-78
2022/03/19 03:01:48;;;;;;;27.73;14.63;;;;;;;-9.60;53.82;101401.97;4925527;29;20103;-79
2022/03/19 03:04:14;;;;;;;23.27;11.40;;;;;;;-9.67;53.99;101406.88;4905012;29;20135;-81
2022/03/19 03:06:42;;;;;;;19.00;12.10;;;;;;;-9.64;53.93;101397.53;4904779;29;20143;-79
2022/03/19 03:09:10;;;;;;;26.10;12.77;;;;;;;-9.63;54.09;101407.03;4921285;29;20135;-79
2022/03/19 03:11:37;;;;;;;27.75;13.00;;;;;;;-9.59;54.02;101398.56;4920903;29;20060;-79
2022/03/19 03:14:04;;;;;;;43.33;14.38;;;;;;;-9.60;54.04;101389.03;4925027;29;20461;-80
2022/03/19 03:16:32;;;;;;;30.48;12.82;;;;;;;-9.53;53.90;101397.88;4922536;29;20043;-81
2022/03/19 03:19:01;;;;;;;25.50;13.40;;;;;;;-9.49;54.17;101396.28;4902883;29;20124;-82
2022/03/19 03:21:27;;;;;;;28.73;13.15;;;;;;;-9.48;54.26;101393.75;4918745;29;20484;-79
2022/03/19 03:23:54;;;;;;;39.53;13.00;;;;;;;-9.40;54.47;101404.34;4921741;29;20066;-81
2022/03/19 03:26:21;;;;;;;28.55;12.95;;;;;;;-9.32;54.86;101411.56;4935670;29;20058;-80
2022/03/19 03:28:47;;;;;;;40.90;16.58;;;;;;;-9.20;54.92;101418.88;4938841;29;20066;-80
2022/03/19 03:31:13;;;;;;;25.25;15.93;;;;;;;-9.03;54.49;101416.81;4939906;29;20055;-80
2022/03/19 03:33:39;;;;;;;34.10;17.15;;;;;;;-8.92;54.73;101404.22;4954333;29;20051;-81
2022/03/19 03:36:10;;;;;;;33.20;19.23;;;;;;;-8.82;54.56;101403.66;4953147;29;20071;-81
2022/03/19 03:38:37;;;;;;;47.25;21.70;;;;;;;-8.76;54.45;101409.06;4938060;29;20067;-79
2022/03/19 03:41:03;;;;;;;36.75;21.27;;;;;;;-8.55;54.37;101429.56;4927217;29;20503;-79
2022/03/19 03:43:29;;;;;;;41.53;21.75;;;;;;;-8.52;53.96;101423.59;4923974;29;20056;-77
2022/03/19 03:45:55;;;;;;;41.03;21.27;;;;;;;-8.55;53.98;101419.19;4938409;29;20102;-79
2022/03/19 03:48:22;;;;;;;45.20;21.17;;;;;;;-8.69;54.08;101418.75;4905666;29;20048;-79
2022/03/19 03:50:51;;;;;;;41.17;23.25;;;;;;;-8.75;54.42;101413.41;4953111;28;20480;-80
2022/03/19 03:53:25;;;;;;;39.17;24.48;;;;;;;-8.79;54.50;101432.28;4937229;29;20418;-79
2022/03/19 03:55:51;;;;;;;54.35;22.40;;;;;;;-8.63;54.64;101436.22;4920730;29;20047;-79
2022/03/19 03:58:17;;;;;;;37.55;21.50;;;;;;;-8.47;54.30;101435.00;4920976;29;20175;-80
2022/03/19 04:00:43;;;;;;;36.28;21.60;;;;;;;-8.44;54.08;101429.91;4921223;29;20134;-81
2022/03/19 04:03:09;;;;;;;37.40;21.75;;;;;;;-8.53;54.16;101408.88;4905876;29;20044;-81
2022/03/19 04:05:35;;;;;;;44.80;21.52;;;;;;;-8.41;53.74;101417.91;4921440;29;20047;-79
2022/03/19 04:08:03;;;;;;;43.00;22.30;;;;;;;-8.26;53.35;101432.13;4937011;29;20056;-82
2022/03/19 04:10:30;;;;;;;42.30;22.48;;;;;;;-8.19;52.92;101434.09;4905305;29;20089;-80
2022/03/19 04:12:56;;;;;;;35.60;22.10;;;;;;;-8.09;52.29;101436.97;4936625;29;20067;-85
2022/03/19 04:15:22;;;;;;;42.90;23.73;;;;;;;-8.09;52.27;101428.31;4920713;29;20060;-81
2022/03/19 04:17:48;;;;;;;43.78;25.10;;;;;;;-8.12;53.14;101442.09;4938057;29;20044;-80
2022/03/19 04:20:14;;;;;;;38.83;25.33;;;;;;;-7.95;53.46;101449.47;4937459;29;20546;-80
2022/03/19 04:22:42;;;;;;;44.85;25.65;;;;;;;-7.68;52.74;101459.75;4942178;29;20500;-82
2022/03/19 04:25:22;;;;;;;48.67;26.92;;;;;;;-7.56;52.55;101452.28;4952857;29;20044;-78
2022/03/19 04:27:51;;;;;;;46.30;25.92;;;;;;;-7.40;52.38;101435.41;4921230;29;20048;-82
2022/03/19 04:30:19;;;;;;;44.50;26.88;;;;;;;-7.15;52.21;101435.19;4922140;29;20040;-82
2022/03/19 04:32:53;;;;;;;51.35;25.83;;;;;;;-7.02;51.89;101449.41;4935746;29;20118;-79
2022/03/19 04:38:07;;;;;;;45.13;26.00;;;;;;;-6.70;51.63;101450.16;4936019;29;20048;-78
2022/03/19 04:40:35;;;;;;;55.70;29.42;;;;;;;-6.42;51.26;101437.81;4937355;29;20055;-81
2022/03/19 04:43:01;;;;;;;51.42;26.70;;;;;;;-6.24;50.38;101432.13;4936130;29;20082;-80
2022/03/19 04:45:27;;;;;;;44.20;24.75;;;;;;;-5.98;50.41;101419.66;4935995;29;20055;-82
2022/03/19 04:47:53;;;;;;;45.28;25.67;;;;;;;-5.73;48.89;101421.88;4920261;29;20058;-82
2022/03/19 04:50:20;;;;;;;45.10;27.05;;;;;;;-5.53;48.35;101434.38;4937314;29;20454;-81
2022/03/19 04:52:47;;;;;;;45.92;25.25;;;;;;;-5.39;47.82;101425.09;4937892;29;20052;-81
2022/03/19 04:55:13;;;;;;;52.15;26.38;;;;;;;-5.32;47.69;101424.38;4936392;29;20048;-83
2022/03/19 04:57:39;;;;;;;43.92;24.80;;;;;;;-5.16;47.46;101425.50;4935709;29;20496;-82
2022/03/19 05:00:07;;;;;;;42.22;24.33;;;;;;;-4.94;47.13;101418.94;4919014;29;20094;-78
2022/03/19 05:02:34;;;;;;;38.67;23.05;;;;;;;-4.90;47.22;101402.47;4936918;29;20103;-80
2022/03/19 05:05:03;;;;;;;37.53;21.38;;;;;;;-4.83;47.10;101430.41;4919917;29;20074;-79
2022/03/19 05:07:35;;;;;;;38.47;21.63;;;;;;;-4.66;46.80;101433.31;4934648;29;20056;-79
2022/03/19 05:12:50;;;;;;;40.47;20.45;;;;;;;-4.11;46.48;101407.97;4935690;29;20060;-79
2022/03/19 05:15:16;;;;;;;35.92;18.55;;;;;;;-3.94;45.78;101421.25;4935309;29;20059;-77
2022/03/19 05:17:44;;;;;;;29.75;18.45;;;;;;;-3.98;45.95;101422.94;4936496;29;20435;-77
2022/03/19 05:20:12;;;;;;;35.65;17.08;;;;;;;-3.68;45.67;101409.38;4950957;29;20059;-80
2022/03/19 05:22:38;;;;;;;27.60;15.40;;;;;;;-3.43;44.92;101405.25;4936307;29;20082;-80
2022/03/19 05:25:05;;;;;;;26.52;14.30;;;;;;;-3.33;44.48;101423.66;4903555;29;20090;-78
2022/03/19 05:27:31;;;;;;;21.77;13.77;;;;;;;-3.19;44.59;101438.63;4918932;29;20531;-79
2022/03/19 05:29:58;;;;;;;20.25;13.77;;;;;;;-3.01;44.54;101418.72;4903054;29;20039;-76
2022/03/19 05:32:24;;;;;;;25.05;14.32;;;;;;;-2.96;43.97;101404.81;4937480;29;20056;-81
2022/03/19 05:34:51;;;;;;;23.55;14.15;;;;;;;-2.87;44.52;101431.94;4904511;29;20534;-81
2022/03/19 05:37:17;;;;;;;26.02;12.50;;;;;;;-2.72;44.00;101425.06;4903365;29;20094;-79
2022/03/19 05:39:43;;;;;;;20.65;12.60;;;;;;;-2.56;44.08;101404.22;4936388;29;20100;-80
2022/03/19 05:42:11;;;;;;;28.02;11.43;;;;;;;-2.41;43.17;101416.53;4902911;29;20052;-81
2022/03/19 05:44:38;;;;;;;17.65;10.48;;;;;;;-2.35;43.44;101421.84;4918225;29;20083;-80
2022/03/19 05:47:05;;;;;;;19.63;11.00;;;;;;;-2.16;43.01;101428.06;4903431;29;20035;-82
2022/03/19 05:49:31;;;;;;;18.83;10.85;;;;;;;-2.07;43.10;101420.22;4934933;29;20047;-87
2022/03/19 05:51:58;;;;;;;26.02;12.02;;;;;;;-1.77;42.88;101417.75;4919846;29;20056;-78
2022/03/19 05:54:24;;;;;;;24.42;12.77;;;;;;;-1.73;42.21;101414.28;4934709;29;20126;-78
2022/03/19 05:56:52;;;;;;;23.00;12.95;;;;;;;-1.58;41.96;101433.53;4902796;29;20503;-79
2022/03/19 05:59:19;;;;;;;22.88;11.73;;;;;;;-1.49;42.27;101444.94;4934793;29;20503;-79
2022/03/19 06:01:45;;;;;;;22.92;11.35;;;;;;;-1.43;42.11;101425.69;4935777;29;20047;-78
2022/03/19 06:04:11;;;;;;;24.08;10.65;;;;;;;-1.28;41.72;101407.41;4935418;29;20051;-80
2022/03/19 06:06:37;;;;;;;15.45;9.27;;;;;;;-1.14;41.61;101417.00;4918724;29;20051;-79
2022/03/19 06:09:04;;;;;;;15.77;8.95;;;;;;;-1.12;40.96;101429.28;4902967;29;20055;-79
2022/03/19 06:11:30;;;;;;;17.58;9.55;;;;;;;-1.09;41.44;101433.63;4902605;29;20044;-80
2022/03/19 06:13:57;;;;;;;24.73;10.52;;;;;;;-1.06;41.44;101404.75;4920718;29;20063;-89
2022/03/19 06:16:23;;;;;;;25.00;10.73;;;;;;;-1.03;40.93;101395.16;4917284;29;20040;-82
2022/03/19 06:18:52;;;;;;;30.98;11.07;;;;;;;-1.06;40.92;101382.00;4947917;29;20051;-86
2022/03/19 06:21:25;;;;;;;27.17;11.60;;;;;;;-0.92;40.40;101403.03;4939588;29;20567;-78
2022/03/19 06:23:52;;;;;;;23.35;9.98;;;;;;;-0.74;40.45;101413.53;4920041;29;20043;-78
2022/03/19 06:26:20;;;;;;;22.20;9.80;;;;;;;-0.59;40.04;101403.88;4921397;29;20050;-78
2022/03/19 06:28:46;;;;;;;17.65;9.50;;;;;;;-0.40;39.45;101384.59;4936874;29;20491;-75
2022/03/19 06:31:12;;;;;;;18.45;9.60;;;;;;;-0.36;39.65;101399.47;4954345;29;20047;-77
2022/03/19 06:33:44;;;;;;;19.08;10.75;;;;;;;-0.22;39.16;101415.19;4969374;28;20051;-78
2022/03/19 06:38:56;;;;;;;20.80;11.35;;;;;;;0.07;38.65;101411.59;4969317;28;20085;-79
2022/03/19 06:41:22;;;;;;;18.80;10.63;;;;;;;0.02;38.46;101408.97;4937375;29;20071;-79
2022/03/19 06:43:49;;;;;;;30.42;11.02;;;;;;;0.14;38.43;101410.69;4936737;29;20556;-78
2022/03/19 06:46:17;;;;;;;21.55;12.18;;;;;;;0.18;38.33;101415.91;4938684;29;20055;-80
2022/03/19 06:48:46;;;;;;;19.40;11.95;;;;;;;0.13;38.55;101407.19;4941402;29;20055;-79
2022/03/19 06:51:13;;;;;;;22.80;12.27;;;;;;;0.25;37.91;101395.72;4938757;29;20043;-78
2022/03/19 06:53:39;;;;;;;22.42;11.98;;;;;;;0.40;37.70;101397.41;4922108;29;20495;-79
2022/03/19 06:56:06;;;;;;;22.52;11.13;;;;;;;0.46;36.91;101400.00;4938097;29;20043;-79
2022/03/19 06:58:32;;;;;;;23.80;10.95;;;;;;;0.39;37.48;101436.00;4921601;29;20074;-78
2022/03/19 07:00:58;;;;;;;19.88;10.50;;;;;;;0.34;37.16;101442.16;4954350;29;20047;-79
2022/03/19 07:03:25;;;;;;;17.55;9.73;;;;;;;0.18;37.42;101413.28;4924372;29;20043;-80
2022/03/19 07:05:51;;;;;;;17.40;8.50;;;;;;;0.14;42.46;101403.66;4934874;29;20048;-82
2022/03/19 07:08:17;;;;;;;17.20;9.32;;;;;;;0.10;38.40;101406.31;4934391;29;20144;-86
2022/03/19 07:10:43;;;;;;;20.60;8.73;;;;;;;0.42;37.95;101404.41;4950542;29;20043;-85
2022/03/19 07:13:09;;;;;;;26.73;9.50;;;;;;;0.52;36.33;101394.69;4917672;29;20503;-83
2022/03/19 07:15:35;;;;;;;17.42;9.00;;;;;;;0.73;36.76;101381.41;4949923;29;20043;-82
2022/03/19 07:18:02;;;;;;;18.98;8.57;;;;;;;0.85;36.65;101380.44;4934619;29;20040;-85
2022/03/19 07:20:30;;;;;;;16.48;8.73;;;;;;;0.80;36.47;101392.78;4950023;29;20090;-84
2022/03/19 07:23:02;;;;;;;13.45;9.18;;;;;;;0.90;36.26;101388.28;4949706;28;20571;-84
2022/03/19 07:25:34;;;;;;;23.08;9.63;;;;;;;1.07;35.14;101394.31;4918210;29;20137;-84
2022/03/19 07:28:10;;;;;;;18.85;9.57;;;;;;;1.09;35.52;101382.03;4918027;29;20044;-83
2022/03/19 07:30:37;;;;;;;16.60;9.05;;;;;;;1.22;35.58;101369.59;4920715;29;20039;-85
2022/03/19 07:33:04;;;;;;;15.30;8.85;;;;;;;1.31;35.66;101360.72;4930201;29;20077;-85
2022/03/19 07:35:30;;;;;;;15.90;9.50;;;;;;;1.42;35.43;101356.22;4954150;29;20098;-87
2022/03/19 07:37:57;;;;;;;14.13;8.98;;;;;;;1.61;35.37;101375.34;4938457;29;20452;-84
2022/03/19 07:43:11;;;;;;;13.30;9.07;;;;;;;1.59;35.22;101383.28;4936997;29;20043;-85
2022/03/19 07:45:38;;;;;;;15.13;8.75;;;;;;;1.31;35.58;101393.22;4953429;29;20060;-78
2022/03/19 07:48:05;;;;;;;16.30;8.98;;;;;;;1.35;35.68;101383.53;4952624;29;20048;-80
2022/03/19 07:50:31;;;;;;;18.00;10.02;;;;;;;1.29;35.41;101387.09;4952342;29;20534;-80
2022/03/19 07:52:58;;;;;;;16.02;9.80;;;;;;;1.27;35.42;101369.56;4936439;29;20419;-80
2022/03/19 07:55:24;;;;;;;23.85;10.30;;;;;;;1.25;35.97;101366.09;4936903;29;20039;-82
2022/03/19 07:57:51;;;;;;;20.33;10.10;;;;;;;1.17;36.06;101369.66;4953518;28;20039;-80
2022/03/19 08:00:18;;;;;;;19.10;10.43;;;;;;;1.37;36.44;101376.50;4938966;29;20130;-80
2022/03/19 08:02:45;;;;;;;21.00;12.13;;;;;;;1.50;36.15;101377.22;4922146;29;20131;-79
2022/03/19 08:05:12;;;;;;;31.42;11.77;;;;;;;1.82;35.58;101369.00;4938480;29;20047;-80
2022/03/19 08:07:39;;;;;;;26.35;12.77;;;;;;;2.09;35.10;101365.13;4938865;29;20460;-81
2022/03/19 08:10:07;;;;;;;22.10;12.15;;;;;;;2.10;34.62;101367.75;4953246;29;20051;-81
2022/03/19 08:12:33;;;;;;;17.80;11.90;;;;;;;1.96;34.52;101377.63;4936752;29;20451;-82
2022/03/19 08:14:59;;;;;;;19.90;11.38;;;;;;;1.91;34.84;101374.13;4937035;29;20051;-81
2022/03/19 08:17:28;;;;;;;19.50;12.43;;;;;;;2.16;34.85;101380.88;4920944;29;20044;-80
2022/03/19 08:19:57;;;;;;;19.50;12.57;;;;;;;2.41;34.66;101381.41;4921362;29;20190;-80
2022/03/19 08:22:25;;;;;;;20.73;13.15;;;;;;;2.51;34.71;101371.59;4936857;29;20487;-81
2022/03/19 08:24:52;;;;;;;27.15;14.40;;;;;;;2.53;34.82;101364.53;4920764;29;20047;-80
2022/03/19 08:27:18;;;;;;;24.00;15.55;;;;;;;1.37;35.25;101376.50;4936626;29;20040;-81
2022/03/19 08:29:44;;;;;;;27.67;15.77;;;;;;;1.55;35.49;101373.69;4936724;29;20055;-81
2022/03/19 08:32:10;;;;;;;24.02;14.60;;;;;;;2.06;35.45;101381.88;4920882;29;20094;-80
2022/03/19 08:34:37;;;;;;;68.28;19.05;;;;;;;2.32;34.92;101370.09;4952830;29;20079;-80
2022/03/19 08:37:06;;;;;;;39.55;17.23;;;;;;;2.49;35.17;101359.31;4937619;28;20153;-81
2022/03/19 08:42:17;;;;;;;43.40;20.67;;;;;;;2.62;34.84;101369.66;4937785;29;20077;-80
2022/03/19 08:44:43;;;;;;;39.63;23.38;;;;;;;2.84;34.34;101364.91;4936125;29;20048;-79
2022/03/19 08:47:09;;;;;;;41.30;23.42;;;;;;;3.12;34.00;101356.53;4920186;29;20484;-79
2022/03/19 08:49:35;;;;;;;44.38;23.35;;;;;;;3.29;33.89;101358.91;4952116;29;20052;-81
2022/03/19 08:52:01;;;;;;;40.85;20.33;;;;;;;3.21;33.96;101363.44;4935894;29;20456;-80
2022/03/19 08:54:26;;;;;;;39.83;22.38;;;;;;;3.31;34.11;101365.00;4938202;29;20396;-81
2022/03/19 08:56:52;;;;;;;41.58;23.38;;;;;;;3.24;34.29;101351.06;4938872;29;20488;-80
2022/03/19 08:59:20;;;;;;;47.55;25.13;;;;;;;3.38;34.16;101364.00;4937238;29;20121;-81
2022/03/19 09:01:48;;;;;;;44.70;24.33;;;;;;;3.54;34.54;101356.69;4953999;29;20068;-81
2022/03/19 09:04:15;;;;;;;35.45;23.00;;;;;;;3.76;34.30;101349.19;4935691;29;20043;-81
2022/03/19 09:06:41;;;;;;;39.05;22.60;;;;;;;3.74;33.64;101353.66;4936741;29;20102;-81
2022/03/19 09:09:07;;;;;;;40.90;22.63;;;;;;;3.77;34.55;101343.88;4951365;29;20049;-81
2022/03/19 09:11:35;;;;;;;45.22;23.33;;;;;;;3.95;34.23;101336.44;4951334;29;20048;-80
2022/03/19 09:14:03;;;;;;;50.15;26.35;;;;;;;3.94;33.68;101335.59;4951451;29;20039;-81
2022/03/19 09:16:30;;;;;;;70.18;32.42;;;;;;;3.83;33.98;101342.88;4937920;29;20047;-79
2022/03/19 09:18:56;;;;;;;82.10;29.05;;;;;;;3.78;34.76;101331.53;4937938;29;20110;-81
2022/03/19 09:21:22;;;;;;;73.55;31.92;;;;;;;3.87;34.51;101336.59;4951623;29;20043;-82
2022/03/19 09:23:51;;;;;;;62.45;32.03;;;;;;;3.76;34.37;101330.66;4951488;29;20060;-81
2022/03/19 09:26:18;;;;;;;69.28;32.38;;;;;;;3.67;34.57;101346.72;4935587;29;20488;-82
2022/03/19 09:28:45;;;;;;;72.70;31.02;;;;;;;3.74;34.73;101335.13;4936711;29;20411;-80
2022/03/19 09:31:14;;;;;;;61.38;30.30;;;;;;;3.43;35.23;101333.09;4936402;29;20102;-81
2022/03/19 09:33:42;;;;;;;54.50;26.95;;;;;;;3.34;35.16;101322.66;4936498;29;20044;-79
2022/03/19 09:36:08;;;;;;;63.30;29.30;;;;;;;3.17;35.23;101315.94;4950931;29;20099;-81
2022/03/19 09:38:34;;;;;;;52.45;25.85;;;;;;;3.37;35.28;101333.19;4934986;29;20035;-81
2022/03/19 09:41:00;;;;;;;52.22;26.35;;;;;;;3.38;35.24;101321.72;4935172;29;20055;-80
2022/03/19 09:43:31;;;;;;;50.35;25.83;;;;;;;3.18;35.71;101327.38;4936273;29;20122;-78
2022/03/19 09:45:57;;;;;;;58.20;26.80;;;;;;;2.87;36.41;101327.03;4919055;29;20062;-80
2022/03/19 09:48:23;;;;;;;65.95;27.98;;;;;;;2.91;36.37;101320.81;4936116;29;20114;-79
2022/03/19 09:50:54;;;;;;;73.63;29.20;;;;;;;2.76;36.70;101319.28;4951541;28;20055;-80
2022/03/19 09:53:23;;;;;;;81.07;29.23;;;;;;;2.67;37.09;101317.66;4935285;29;20468;-80
2022/03/19 09:55:50;;;;;;;49.42;24.63;;;;;;;2.92;37.09;101309.31;4950539;29;20107;-80
2022/03/19 09:58:16;;;;;;;60.70;27.73;;;;;;;3.12;36.46;101307.22;4950166;29;20146;-80
2022/03/19 10:00:43;;;;;;;51.58;23.42;;;;;;;3.29;36.13;101308.69;4935633;29;20495;-80
2022/03/19 10:03:10;;;;;;;53.20;23.67;;;;;;;3.36;36.27;101299.75;4918923;29;20044;-80
2022/03/19 10:08:37;;;;;;;50.50;25.55;;;;;;;3.67;35.85;101305.28;4950881;29;20047;-80
2022/03/19 10:11:05;;;;;;;52.65;25.45;;;;;;;3.78;35.36;101310.34;4935881;29;20123;-80
2022/03/19 10:13:31;;;;;;;51.63;25.23;;;;;;;3.86;35.04;101305.78;4935030;29;20051;-80
2022/03/19 10:15:56;;;;;;;66.15;26.50;;;;;;;3.84;35.47;101302.31;4918943;29;20051;-80
2022/03/19 10:18:30;;;;;;;58.60;26.48;;;;;;;3.57;36.18;101299.31;4950631;29;20403;-80
2022/03/19 10:21:01;;;;;;;115.30;28.83;;;;;;;3.83;35.05;101285.53;4934685;29;20412;-79
2022/03/19 10:23:33;;;;;;;45.20;21.80;;;;;;;3.82;35.20;101291.75;4947328;29;20068;-80
2022/03/19 10:25:59;;;;;;;36.55;20.08;;;;;;;4.14;35.30;101290.19;4931297;29;20047;-80
2022/03/19 10:28:34;;;;;;;29.33;17.88;;;;;;;4.42;34.12;101279.81;4916831;29;20056;-81
2022/03/19 10:31:01;;;;;;;27.38;14.82;;;;;;;4.19;33.82;101274.19;4915409;29;20047;-81
2022/03/19 10:33:28;;;;;;;23.75;14.40;;;;;;;3.75;34.17;101281.31;4947092;29;20504;-79
2022/03/19 10:36:10;;;;;;;26.70;15.10;;;;;;;4.00;34.87;101281.69;4921248;29;20571;-80
2022/03/19 10:38:44;;;;;;;26.67;14.63;;;;;;;4.08;34.92;101280.59;4922122;29;20047;-83
2022/03/19 10:41:12;;;;;;;33.05;17.83;;;;;;;4.35;34.21;101284.38;4931563;29;20134;-80
2022/03/19 10:43:38;;;;;;;37.17;17.45;;;;;;;4.26;34.62;101278.44;4931184;29;20051;-80
2022/03/19 10:46:04;;;;;;;33.22;18.00;;;;;;;4.19;34.38;101261.81;4931147;29;20047;-80
2022/03/19 10:48:33;;;;;;;40.22;20.48;;;;;;;4.25;34.63;101272.28;4915362;29;20526;-80
2022/03/19 10:50:59;;;;;;;46.53;20.23;;;;;;;4.32;34.70;101263.25;4914894;29;20048;-79
2022/03/19 10:53:26;;;;;;;32.00;17.70;;;;;;;4.31;34.52;101271.25;4916633;29;20050;-80
2022/03/19 10:55:53;;;;;;;30.80;16.20;;;;;;;4.30;34.68;101264.22;4931062;29;20095;-79
2022/03/19 10:58:19;;;;;;;22.50;13.02;;;;;;;4.17;34.58;101279.50;4931611;29;20079;-79
2022/03/19 11:00:50;;;;;;;20.85;12.27;;;;;;;4.12;34.38;101270.81;4915412;29;20050;-80
2022/03/19 11:03:24;;;;;;;19.80;11.38;;;;;;;3.95;35.07;101268.56;4916460;29;20559;-81
2022/03/19 11:06:04;;;;;;;15.50;10.90;;;;;;;3.86;35.57;101263.44;4916983;29;20047;-80
2022/03/19 11:08:37;;;;;;;18.55;11.20;;;;;;;4.38;35.38;101267.56;4918155;29;20043;-80
2022/03/19 11:11:11;;;;;;;16.20;10.05;;;;;;;4.87;34.39;101269.88;4935582;29;20138;-80
2022/03/19 11:13:42;;;;;;;18.58;10.48;;;;;;;5.43;34.10;101271.03;4951011;29;20048;-81
2022/03/19 11:16:11;;;;;;;14.85;9.13;;;;;;;5.88;33.33;101270.63;4954073;29;20040;-81
2022/03/19 11:18:39;;;;;;;11.90;8.63;;;;;;;6.00;32.57;101263.19;4939245;29;20044;-82
2022/03/19 11:21:05;;;;;;;15.23;9.23;;;;;;;5.95;32.38;101258.94;4953663;29;20055;-79
2022/03/19 11:23:45;;;;;;;16.30;10.25;;;;;;;5.60;32.64;101269.66;4927975;29;20472;-82
2022/03/19 11:26:16;;;;;;;16.90;8.82;;;;;;;5.59;33.04;101262.59;4934567;29;20040;-83
2022/03/19 11:28:43;;;;;;;16.20;8.48;;;;;;;6.10;32.69;101247.84;4918989;29;20058;-79
2022/03/19 11:31:10;;;;;;;13.45;9.82;;;;;;;6.55;31.42;101258.78;4919716;29;20076;-80
2022/03/19 11:33:37;;;;;;;16.17;8.82;;;;;;;6.30;31.32;101248.09;4918430;29;20139;-81
2022/03/19 11:36:10;;;;;;;14.20;9.15;;;;;;;6.38;31.43;101263.78;4919757;29;20492;-80